Aérodrome :
LOGIN :

S'inscrire | Disclaimer

   EN    FR    IT 

 










Légende :    VFR   VFR Marginal   IFR   IFR Intensif   IFR Très Intensif
Visi : 
Plafond : 
>= 8 km
>= 3000ft
5 à 8 km
1000 à 3000 ft
1500m à 5 km
500 à 1000 ft
800 à 1500m
200 à 500 ft
< 800m
< 200 ft
Symboles :   Orages  Brouillard  Fortes neiges  Fortes précipitations  Vent > 20 kt
SIGMETs :   Divers  Orages  Givrage  Turbulence  Onde Orograph.  Cendres Volcan.






- Altitude de l'aérodrome : 423 ft
- Code IATA : PIS


LFBI - Poitiers

DERNIER METAR :
  • 150930Z AUTO 20009KT 9999 FEW010 OVC074 11/10 Q1007 TEMPO 3000 RA BKN005 OVC040 BECMG 23015G25KT

METARs EXPIRÉS :
  • 150900Z AUTO 20010KT 9999 FEW011 OVC066 10/10 Q1007 TEMPO 3000 RA BKN005 OVC040 BECMG 23015G25KT
  • 150830Z AUTO 20009KT CAVOK 10/09 Q1007 TEMPO 3000 RA BKN005 OVC040 BECMG 23015G25KT
  • 150800Z AUTO 23011KT 9999 -RA FEW011 OVC068 10/09 Q1007 TEMPO 3000 RA BKN005 OVC040 BECMG 23015G25KT
  • 150730Z AUTO 22012KT 9999 0450 R21/P5000 RA BCFG FEW012 OVC052 10/09 Q1006 TEMPO 3000 RA BKN005 OVC040 BECMG 23015G25KT
  • 150700Z AUTO 22009KT 9999 -RADZ ///TCU 10/09 Q1006 TEMPO 3000 RA BKN005 OVC040 BECMG 23015G25KT

TAF TAF LFBI
Valide du 15 à 06h jusqu'au 16 à 06h UTC


150500Z 1506/1606 23015G25KT 9999 BKN025
TEMPO 1506/1604 3000 RA BKN005 OVC040
BECMG 1514/1516 21012KT
BECMG 1604/1606 15010KT



MET'MAP, la Météo Aéronautique d'un coup d'oeil ! - Copyright ORBIFLY Décembre 2007 - Disclaimer

ORBIFLY MET'MAP TEAM :

Programmation & Développement : Alexandra Zaïnal
Sur une idée originale de : Baudouin d'Aumeries
Assistance à la programmation : Marc-Olivier Méhu
Soutien technique & logistique : Manuel Goepfert

Contact : metmap@orbifly.com




SOURCES & CREDITS :

   NOAA